Time;durP1;ratioP1;P1;durP2;ratioP2;P2;SDS_P1;SDS_P2;PMS_P1;PMS_P2;Temp;Humidity;BMP_temperature;BMP_pressure;BME280_temperature;BME280_humidity;BME280_pressure;Samples;Min_cycle;Max_cycle;Signal;HPM_P1;HPM_P2
2023/02/06 00:02:40;;;;;;;22.58;12.28;;;;;;;-3.17;71.40;101840.22;1606243;83;21286;-59
2023/02/06 00:06:11;;;;;;;19.48;11.10;;;;;;;-3.16;71.47;101846.02;1619858;85;21234;-57
2023/02/06 00:10:33;;;;;;;23.18;11.75;;;;;;;-3.18;71.47;101835.81;1642298;84;21242;-56
2023/02/06 00:14:02;;;;;;;22.40;11.88;;;;;;;-3.22;71.34;101838.20;1644964;84;21230;-57
2023/02/06 00:17:52;;;;;;;24.75;12.37;;;;;;;-3.28;71.24;101833.92;1639895;83;21273;-57
2023/02/06 00:21:38;;;;;;;23.22;12.00;;;;;;;-3.32;71.24;101830.06;1636128;83;21313;-57
2023/02/06 00:25:13;;;;;;;22.82;12.05;;;;;;;-3.35;71.17;101844.90;1640128;85;21219;-56
2023/02/06 00:28:40;;;;;;;21.93;10.80;;;;;;;-3.38;71.24;101839.17;1649688;83;21443;-58
2023/02/06 00:31:52;;;;;;;20.62;12.07;;;;;;;-3.37;71.27;101846.30;1639211;86;21752;-57
2023/02/06 00:35:09;;;;;;;20.60;11.00;;;;;;;-3.41;71.21;101842.44;1642996;86;21370;-57
2023/02/06 00:38:21;;;;;;;23.38;11.90;;;;;;;-3.36;71.33;101847.14;1643991;87;21215;-57
2023/02/06 00:41:59;;;;;;;24.47;12.07;;;;;;;-3.30;71.35;101842.95;1644017;87;21393;-57
2023/02/06 00:45:44;;;;;;;18.80;10.53;;;;;;;-3.17;71.32;101841.56;1853647;75;22277;-57
2023/02/06 00:48:59;;;;;;;22.55;11.95;;;;;;;-3.24;71.27;101846.74;1812420;77;21206;-58
2023/02/06 00:52:18;;;;;;;20.88;12.10;;;;;;;-3.23;71.35;101843.13;1786931;79;21729;-58
2023/02/06 00:55:45;;;;;;;23.57;12.82;;;;;;;-3.20;71.41;101840.34;1789776;78;21615;-58
2023/02/06 00:59:15;;;;;;;18.77;10.10;;;;;;;-3.17;71.36;101834.87;1802367;77;21248;-58
2023/02/06 01:02:31;;;;;;;19.52;10.88;;;;;;;-3.14;71.50;101841.00;1763543;79;21839;-58
2023/02/06 01:05:46;;;;;;;18.60;10.58;;;;;;;-3.07;71.55;101843.00;1802468;78;21215;-57
2023/02/06 01:09:08;;;;;;;18.57;10.38;;;;;;;-2.97;71.49;101843.55;1876630;76;22173;-57
2023/02/06 01:12:22;;;;;;;21.15;12.13;;;;;;;-3.01;71.51;101847.28;1805739;79;21283;-58
2023/02/06 01:15:30;;;;;;;27.15;13.90;;;;;;;-3.02;71.46;101835.68;1783168;79;21220;-59
2023/02/06 01:18:47;;;;;;;24.87;12.45;;;;;;;-3.08;71.36;101845.28;1803866;79;21232;-58
2023/02/06 01:22:05;;;;;;;27.55;13.90;;;;;;;-3.10;71.41;101841.77;1785818;79;21185;-58
2023/02/06 01:25:38;;;;;;;38.23;18.20;;;;;;;-3.11;71.49;101844.05;1784601;79;21721;-57
2023/02/06 01:29:36;;;;;;;37.53;17.73;;;;;;;-3.05;71.59;101845.16;1804729;79;21252;-57
2023/02/06 01:33:08;;;;;;;30.05;14.33;;;;;;;-3.03;71.60;101835.28;1802359;79;21160;-57
2023/02/06 01:36:40;;;;;;;23.67;13.55;;;;;;;-3.00;71.65;101841.86;1791748;79;21169;-57
2023/02/06 01:40:16;;;;;;;25.48;13.68;;;;;;;-3.00;71.56;101855.71;1804715;79;21828;-57
2023/02/06 01:44:16;;;;;;;23.15;12.93;;;;;;;-3.09;71.44;101856.90;1793384;79;21674;-58
2023/02/06 01:47:54;;;;;;;26.75;14.15;;;;;;;-3.16;71.43;101852.70;1805033;79;21204;-58
2023/02/06 01:51:21;;;;;;;24.92;12.68;;;;;;;-3.16;71.54;101856.72;1805223;79;21373;-58
2023/02/06 01:55:13;;;;;;;24.92;13.22;;;;;;;-3.12;71.70;101853.87;1804855;79;21197;-58
2023/02/06 01:58:42;;;;;;;22.10;11.80;;;;;;;-3.09;71.75;101864.93;1804909;79;21196;-57
2023/02/06 02:02:27;;;;;;;25.35;14.07;;;;;;;-3.13;71.62;101862.86;1805246;79;21331;-58
2023/02/06 02:06:10;;;;;;;23.07;12.85;;;;;;;-3.18;71.48;101874.63;1803739;79;21204;-58
2023/02/06 02:09:26;;;;;;;25.05;13.48;;;;;;;-3.27;71.37;101866.93;1769132;79;21177;-59
2023/02/06 02:12:46;;;;;;;24.27;13.72;;;;;;;-3.28;71.45;101866.50;1742007;81;21177;-58
2023/02/06 02:16:43;;;;;;;31.17;15.58;;;;;;;-3.27;71.50;101861.58;1760662;81;21398;-58
2023/02/06 02:24:33;;;;;;;24.60;13.90;;;;;;;-2.95;71.87;101865.80;1826453;78;22849;-57
2023/02/06 02:28:36;;;;;;;29.20;14.30;;;;;;;-3.01;71.75;101874.06;1763047;80;21233;-58
2023/02/06 02:32:38;;;;;;;24.60;13.68;;;;;;;-3.01;71.70;101874.91;1744942;81;21233;-58
2023/02/06 02:36:33;;;;;;;23.35;12.58;;;;;;;-2.94;71.63;101868.88;1849647;73;22243;-57
2023/02/06 02:40:37;;;;;;;25.65;12.20;;;;;;;-3.01;71.58;101874.91;1804501;77;21586;-58
2023/02/06 02:44:06;;;;;;;23.47;13.90;;;;;;;-3.16;71.32;101873.67;1805246;77;21181;-57
2023/02/06 02:47:59;;;;;;;24.82;13.00;;;;;;;-3.36;71.17;101875.25;1784708;78;21847;-59
2023/02/06 02:51:31;;;;;;;27.02;13.53;;;;;;;-3.46;71.22;101876.51;1731585;79;21181;-58
2023/02/06 02:54:50;;;;;;;23.40;12.20;;;;;;;-3.50;71.35;101877.52;1743932;79;21205;-59
2023/02/06 02:58:03;;;;;;;24.20;13.40;;;;;;;-3.50;71.36;101882.88;1729302;79;21807;-59
2023/02/06 03:01:30;;;;;;;24.45;13.53;;;;;;;-3.48;71.49;101881.03;1761507;78;21763;-58
2023/02/06 03:05:13;;;;;;;23.75;12.15;;;;;;;-3.46;71.51;101880.52;1760639;79;21709;-59
2023/02/06 03:08:37;;;;;;;28.45;14.33;;;;;;;-3.40;71.63;101878.98;1746092;79;21760;-59
2023/02/06 03:12:08;;;;;;;25.05;13.72;;;;;;;-3.37;71.56;101870.84;1737327;79;21227;-58
2023/02/06 03:16:25;;;;;;;26.77;13.43;;;;;;;-3.35;71.59;101878.36;1731609;80;21207;-58
2023/02/06 03:19:59;;;;;;;27.05;14.53;;;;;;;-3.35;71.67;101868.54;1678081;81;21239;-59
2023/02/06 03:23:22;;;;;;;25.23;14.47;;;;;;;-3.30;71.73;101877.75;1737257;80;21477;-58
2023/02/06 03:34:18;;;;;;;30.17;15.68;;;;;;;-3.37;71.80;101877.08;1725642;80;21257;-59
2023/02/06 03:37:47;;;;;;;29.35;15.78;;;;;;;-3.35;71.80;101877.02;1745675;80;21202;-58
2023/02/06 03:41:22;;;;;;;30.20;16.32;;;;;;;-3.39;71.86;101869.55;1731127;80;21381;-58
2023/02/06 03:44:43;;;;;;;28.70;16.02;;;;;;;-3.44;71.82;101874.67;1731309;80;21364;-59
2023/02/06 03:48:03;;;;;;;28.52;15.80;;;;;;;-3.54;71.74;101875.89;1731452;81;21404;-59
2023/02/06 03:52:07;;;;;;;27.98;16.40;;;;;;;-3.58;71.83;101878.23;1720029;79;21242;-58
2023/02/06 03:55:50;;;;;;;29.02;16.15;;;;;;;-3.65;71.75;101881.61;1750148;78;21218;-58
2023/02/06 03:59:04;;;;;;;29.80;16.60;;;;;;;-3.75;71.74;101873.45;1730681;80;21199;-59
2023/02/06 04:02:39;;;;;;;28.95;15.50;;;;;;;-3.76;71.78;101874.84;1763370;80;21756;-59
2023/02/06 04:06:34;;;;;;;29.00;15.63;;;;;;;-3.80;71.73;101874.51;1835618;76;22293;-59
2023/02/06 04:10:04;;;;;;;27.70;15.28;;;;;;;-3.87;71.80;101875.16;1757833;77;21204;-58
2023/02/06 04:13:26;;;;;;;26.70;14.10;;;;;;;-3.81;71.96;101877.67;1819942;77;21331;-60
2023/02/06 04:17:18;;;;;;;28.80;14.85;;;;;;;-3.75;71.86;101880.59;1757030;78;21200;-59
2023/02/06 04:24:18;;;;;;;30.65;16.67;;;;;;;-3.77;71.85;101882.43;1624470;85;21768;-59
2023/02/06 04:28:04;;;;;;;32.23;16.17;;;;;;;-3.67;72.03;101894.59;1656929;83;21227;-59
2023/02/06 04:31:39;;;;;;;30.25;15.80;;;;;;;-3.51;72.13;101895.41;1835595;74;22326;-59
2023/02/06 04:35:06;;;;;;;29.48;15.30;;;;;;;-3.51;72.11;101907.90;1773879;76;21402;-59
2023/02/06 04:38:32;;;;;;;32.35;16.80;;;;;;;-3.48;72.13;101909.13;1830883;76;21456;-59
2023/02/06 04:52:35;;;;;;;28.12;15.10;;;;;;;-3.16;72.30;101900.91;1752924;79;22308;-58
2023/02/06 04:56:00;;;;;;;30.32;16.60;;;;;;;-3.20;72.29;101909.50;1710233;79;21268;-59
2023/02/06 04:59:44;;;;;;;33.63;17.67;;;;;;;-3.03;72.45;101912.95;1900191;72;22274;-58
2023/02/06 05:03:09;;;;;;;29.23;15.20;;;;;;;-3.02;72.47;101920.05;1850874;74;21200;-58
2023/02/06 05:06:32;;;;;;;33.08;17.30;;;;;;;-2.95;72.47;101921.60;1839379;74;21223;-58
2023/02/06 05:10:01;;;;;;;34.20;16.60;;;;;;;-2.87;72.51;101914.14;1803407;76;21208;-58
2023/02/06 05:13:53;;;;;;;33.75;16.85;;;;;;;-2.77;72.62;101919.59;1806613;75;21211;-57
2023/02/06 05:17:55;;;;;;;30.92;16.65;;;;;;;-2.67;72.58;101921.03;1805038;74;21267;-58
2023/02/06 05:21:55;;;;;;;32.55;17.10;;;;;;;-2.59;72.59;101915.38;1806708;75;21176;-58
2023/02/06 05:25:51;;;;;;;35.45;16.95;;;;;;;-2.53;72.52;101922.73;1779871;75;21219;-59
2023/02/06 05:29:52;;;;;;;33.88;16.23;;;;;;;-2.45;72.56;101919.31;1824531;75;21234;-58
2023/02/06 05:33:43;;;;;;;37.80;18.02;;;;;;;-2.19;72.67;101919.20;1737492;76;22618;-58
2023/02/06 05:37:34;;;;;;;30.72;15.48;;;;;;;-2.17;72.62;101929.41;1674741;82;21610;-59
2023/02/06 05:40:47;;;;;;;31.95;17.10;;;;;;;-2.09;72.68;101917.92;1688052;81;21391;-59
2023/02/06 05:47:28;;;;;;;31.75;17.37;;;;;;;-1.98;72.51;101922.41;1712250;81;21167;-59
2023/02/06 06:21:08;;;;;;;;;;;;;;;-1.70;72.52;101902.94;1782295;79;21236;-59
2023/02/06 06:24:48;;;;;;;26.65;14.85;;;;;;;-1.67;72.56;101908.67;1771566;79;20299;-58
2023/02/06 06:28:22;;;;;;;30.10;15.72;;;;;;;-1.68;72.54;101905.56;1772697;80;21711;-60
2023/02/06 06:32:02;;;;;;;30.57;17.13;;;;;;;-1.65;72.57;101913.03;1741259;82;21500;-60
2023/02/06 06:35:40;;;;;;;30.82;16.77;;;;;;;-1.65;72.59;101914.86;1761811;78;21236;-59
2023/02/06 06:47:20;;;;;;;30.15;16.07;;;;;;;-1.32;72.67;101934.09;1729670;79;21263;-63
2023/02/06 06:51:52;;;;;;;30.23;16.50;;;;;;;-1.23;72.53;101922.95;1711951;79;21264;-60
2023/02/06 08:00:28;;;;;;;25.75;14.38;;;;;;;-0.05;72.26;101931.56;1803271;76;21764;-60
2023/02/06 08:04:02;;;;;;;26.55;16.07;;;;;;;0.04;72.41;101947.28;1742805;77;21201;-59
2023/02/06 08:07:43;;;;;;;26.37;14.50;;;;;;;0.28;72.29;101941.20;1808203;76;23196;-60
2023/02/06 08:10:46;;;;;;;24.50;14.43;;;;;;;0.29;72.35;101934.41;1758093;78;21855;-57
2023/02/06 08:20:26;;;;;;;24.82;14.58;;;;;;;0.45;72.08;101932.73;1576101;88;21255;-62
2023/02/06 08:30:09;;;;;;;24.37;15.93;;;;;;;0.62;72.06;101934.12;1616273;81;22146;-57
2023/02/06 10:29:52;;;;;;;22.37;14.23;;;;;;;1.74;70.96;101917.52;1675164;79;21308;-56
2023/02/06 11:23:47;;;;;;;22.37;13.80;;;;;;;1.67;70.82;101864.80;1667604;81;21303;-58
2023/02/06 12:28:09;;;;;;;23.40;14.65;;;;;;;1.67;70.77;101916.97;1732631;79;21717;-56
2023/02/06 12:32:35;;;;;;;22.17;13.68;;;;;;;1.73;70.77;101906.33;1688766;83;21244;-60
2023/02/06 12:36:49;;;;;;;18.57;11.48;;;;;;;1.63;70.60;101914.05;1601964;85;21280;-59
2023/02/06 12:40:15;;;;;;;21.80;12.95;;;;;;;1.64;70.68;101920.30;1625466;86;21225;-60
2023/02/06 12:43:40;;;;;;;18.90;12.50;;;;;;;1.50;70.49;101919.23;1657639;83;21702;-59
2023/02/06 12:47:40;;;;;;;19.92;11.93;;;;;;;1.49;70.65;101935.50;1626966;85;21324;-60
2023/02/06 12:55:20;;;;;;;20.55;13.28;;;;;;;1.27;70.55;101937.54;1681786;81;21780;-56
2023/02/06 13:11:55;;;;;;;19.70;12.05;;;;;;;0.81;70.81;101933.61;1698957;79;21248;-60
2023/02/06 13:16:05;;;;;;;18.87;11.93;;;;;;;0.79;70.95;101941.39;1673793;79;21297;-57
2023/02/06 13:19:55;;;;;;;18.17;11.73;;;;;;;0.79;71.06;101939.58;1682130;81;22043;-57
2023/02/06 13:24:10;;;;;;;16.00;10.65;;;;;;;0.77;71.03;101934.73;1669211;81;21213;-59
2023/02/06 13:28:07;;;;;;;21.60;13.32;;;;;;;0.76;71.08;101945.58;1725288;79;21236;-61
2023/02/06 13:31:40;;;;;;;18.73;12.15;;;;;;;0.68;71.06;101954.02;1731588;80;22695;-60
2023/02/06 13:39:48;;;;;;;17.12;11.28;;;;;;;0.66;71.15;101952.36;1693616;78;22047;-59
2023/02/06 14:16:13;;;;;;;20.10;12.45;;;;;;;0.29;71.08;101980.19;1641336;87;21270;-57
2023/02/06 14:20:15;;;;;;;23.42;14.75;;;;;;;0.22;71.12;101976.52;1868109;76;22617;-61
2023/02/06 14:28:00;;;;;;;21.57;13.65;;;;;;;0.08;71.15;101985.70;1756798;81;21277;-59
2023/02/06 14:31:50;;;;;;;22.13;14.28;;;;;;;-0.02;71.18;101978.52;1716930;82;21209;-60
2023/02/06 14:35:35;;;;;;;23.57;14.90;;;;;;;-0.05;71.22;101978.66;1713283;82;21236;-58
2023/02/06 14:40:19;;;;;;;31.80;16.12;;;;;;;-0.10;71.23;101982.03;1704824;83;21252;-58
2023/02/06 14:44:26;;;;;;;29.70;17.65;;;;;;;-0.13;71.33;101984.86;1711765;82;21197;-59
2023/02/06 14:51:46;;;;;;;24.12;15.30;;;;;;;-0.19;71.34;101993.22;1683301;84;21367;-60
2023/02/06 14:55:46;;;;;;;24.82;15.18;;;;;;;-0.17;71.36;101996.23;1864509;76;22538;-59
2023/02/06 14:59:35;;;;;;;25.82;15.70;;;;;;;-0.22;71.36;101997.36;1799233;77;21331;31
2023/02/06 15:03:40;;;;;;;29.55;18.02;;;;;;;-0.24;71.41;102013.58;1692966;85;21230;-56
2023/02/06 15:07:24;;;;;;;33.80;18.55;;;;;;;-0.25;71.39;102007.80;1646188;85;21747;-57
2023/02/06 15:10:54;;;;;;;29.07;15.90;;;;;;;-0.24;71.40;102012.23;1636077;87;21299;-58
2023/02/06 15:18:27;;;;;;;25.92;14.53;;;;;;;-0.28;71.31;102028.12;1878319;76;22213;-57
2023/02/06 15:25:50;;;;;;;25.55;15.10;;;;;;;-0.44;71.25;102045.86;1787296;79;21208;-57
2023/02/06 15:29:41;;;;;;;22.77;13.85;;;;;;;-0.48;71.32;102041.58;1737102;82;21391;-57
2023/02/06 15:33:38;;;;;;;25.08;14.20;;;;;;;-0.49;71.40;102047.02;1736828;82;21833;-58
2023/02/06 15:37:40;;;;;;;23.92;14.68;;;;;;;-0.53;71.45;102041.34;1741659;81;21157;-58
2023/02/06 15:41:33;;;;;;;22.77;13.75;;;;;;;-0.42;71.51;102040.42;1852302;76;22762;-57
2023/02/06 15:45:04;;;;;;;22.87;13.10;;;;;;;-0.47;71.50;102043.31;1795673;78;21172;-58
2023/02/06 15:48:38;;;;;;;24.55;13.30;;;;;;;-0.53;71.41;102052.11;1793446;79;21144;-57
2023/02/06 15:53:05;;;;;;;21.87;13.72;;;;;;;-0.60;71.32;102049.26;1808247;78;21164;-57
2023/02/06 15:56:19;;;;;;;;;;;;;;;-0.65;71.38;102060.70;1813216;78;21279;-58
2023/02/06 15:59:55;;;;;;;23.98;13.43;;;;;;;-0.70;71.39;102064.05;1812091;78;20205;-57
2023/02/06 16:03:47;;;;;;;24.72;13.72;;;;;;;-0.72;71.46;102068.14;1759144;80;21208;-58
2023/02/06 16:15:33;;;;;;;24.63;13.85;;;;;;;-0.64;71.47;102065.13;1825714;75;22724;-57
2023/02/06 16:19:39;;;;;;;22.10;11.70;;;;;;;-0.73;71.45;102077.63;1724889;80;21405;-58
2023/02/06 16:24:05;;;;;;;23.92;14.18;;;;;;;-0.73;71.51;102067.72;1722462;79;21261;-58
2023/02/06 16:27:33;;;;;;;22.17;12.90;;;;;;;-0.75;71.55;102076.34;1770255;78;21227;-59
2023/02/06 16:30:47;;;;;;;25.75;14.50;;;;;;;-0.71;71.48;102079.75;1760545;77;21220;-59
2023/02/06 16:37:57;;;;;;;22.75;13.20;;;;;;;-0.77;71.40;102084.93;1759019;78;21276;-60
2023/02/06 16:41:41;;;;;;;24.67;14.13;;;;;;;-0.78;71.38;102090.38;1750702;78;21876;-59
2023/02/06 16:45:28;;;;;;;26.23;14.07;;;;;;;-0.88;71.26;102079.58;1751636;79;22017;-57
2023/02/06 16:48:54;;;;;;;22.52;13.70;;;;;;;-0.90;71.37;102078.30;1755708;79;21185;-59
2023/02/06 16:52:07;;;;;;;28.47;14.70;;;;;;;-0.89;71.37;102085.45;1767468;77;21364;-59
2023/02/06 16:55:49;;;;;;;23.90;13.58;;;;;;;-0.91;71.35;102083.73;1757400;79;21448;-57
2023/02/06 16:59:04;;;;;;;25.52;13.75;;;;;;;-0.92;71.39;102087.37;1773073;78;21323;-60
2023/02/06 17:02:31;;;;;;;21.87;12.93;;;;;;;-0.93;71.34;102084.25;1759017;80;21296;-59
2023/02/06 17:06:30;;;;;;;20.92;12.95;;;;;;;-0.94;71.34;102092.81;1753666;80;21239;-57
2023/02/06 17:10:02;;;;;;;23.65;13.72;;;;;;;-0.91;71.40;102082.39;1749280;79;21203;-58
2023/02/06 17:13:37;;;;;;;22.45;13.40;;;;;;;-0.89;71.38;102088.59;1738437;79;21359;-59
2023/02/06 17:16:57;;;;;;;25.50;14.95;;;;;;;-0.88;71.35;102079.58;1774832;78;21176;-59
2023/02/06 17:20:51;;;;;;;20.70;11.90;;;;;;;-0.87;71.25;102069.25;1864269;76;22253;-59
2023/02/06 17:28:11;;;;;;;22.42;13.35;;;;;;;-0.99;71.17;102077.79;1709019;83;22130;-58
2023/02/06 17:31:29;;;;;;;17.60;10.43;;;;;;;-1.02;71.18;102081.95;1642996;86;21867;-59
2023/02/06 17:35:05;;;;;;;20.10;12.68;;;;;;;-1.08;71.13;102066.08;1693419;83;22303;-57
2023/02/06 17:39:10;;;;;;;24.40;14.40;;;;;;;-1.12;71.15;102073.38;1691659;82;21210;-59
2023/02/06 17:42:57;;;;;;;23.90;13.03;;;;;;;-1.09;71.22;102085.34;1599703;89;21299;-59
2023/02/06 17:46:17;;;;;;;21.65;13.03;;;;;;;-1.05;71.26;102078.05;1616006;88;21832;-59
2023/02/06 17:49:41;;;;;;;21.68;12.37;;;;;;;-1.04;71.20;102081.13;1621813;87;21584;-60
2023/02/06 17:53:46;;;;;;;28.75;15.05;;;;;;;-1.01;71.31;102088.61;1635899;86;21271;-57
2023/02/06 17:58:04;;;;;;;23.05;12.43;;;;;;;-1.00;71.23;102078.73;1648126;85;21232;-58
2023/02/06 18:01:31;;;;;;;20.95;13.05;;;;;;;-0.98;71.27;102077.73;1662346;82;21216;-60
2023/02/06 18:04:53;;;;;;;23.40;13.13;;;;;;;-0.94;71.23;102084.75;1734273;82;21283;-59
2023/02/06 18:08:24;;;;;;;25.43;14.70;;;;;;;-0.99;71.08;102081.82;1736466;82;21395;-61
2023/02/06 18:15:48;;;;;;;23.87;13.08;;;;;;;-1.00;71.09;102076.05;1852253;76;22876;-60
2023/02/06 18:19:10;;;;;;;23.18;13.40;;;;;;;-1.09;71.07;102075.05;1789627;79;21378;-59
2023/02/06 18:23:00;;;;;;;26.68;14.65;;;;;;;-1.11;71.03;102085.01;1787613;79;21201;-58
2023/02/06 18:26:35;;;;;;;25.43;14.78;;;;;;;-1.07;71.05;102078.11;1824878;76;22356;-58
2023/02/06 18:30:03;;;;;;;23.02;12.93;;;;;;;-1.12;71.05;102069.34;1761751;79;21255;-57
2023/02/06 18:37:08;;;;;;;20.52;12.28;;;;;;;-1.15;71.01;102074.84;1772434;81;21409;-59
2023/02/06 18:40:52;;;;;;;21.77;11.60;;;;;;;-1.19;70.96;102071.86;1706535;82;21263;-58
2023/02/06 18:45:12;;;;;;;22.30;13.38;;;;;;;-1.22;70.98;102074.66;1707075;82;21754;-58
2023/02/06 18:48:54;;;;;;;18.87;12.15;;;;;;;-1.26;71.01;102084.25;1726062;83;21237;-58
2023/02/06 18:52:05;;;;;;;21.12;11.68;;;;;;;-1.28;70.99;102075.41;1773453;80;21188;-59
2023/02/06 19:06:23;;;;;;;22.85;12.93;;;;;;;-1.39;70.96;102084.31;1862456;76;22301;-57
2023/02/06 19:09:47;;;;;;;21.97;12.73;;;;;;;-1.45;70.97;102079.18;1794316;77;21824;-59
2023/02/06 19:13:07;;;;;;;18.12;11.38;;;;;;;-1.44;71.04;102087.66;1781206;76;21389;-59
2023/02/06 19:16:34;;;;;;;19.77;11.78;;;;;;;-1.38;71.02;102076.22;1921294;74;22206;-58
2023/02/06 19:20:01;;;;;;;22.20;12.53;;;;;;;-1.42;70.93;102090.69;1864638;76;22320;-59
2023/02/06 19:23:34;;;;;;;22.40;13.47;;;;;;;-1.48;70.93;102085.55;1790036;79;21354;-59
2023/02/06 19:27:37;;;;;;;21.85;12.50;;;;;;;-1.46;70.87;102088.18;1837861;76;22553;-59
2023/02/06 19:31:27;;;;;;;18.80;11.70;;;;;;;-1.58;70.76;102101.14;1798399;77;21199;-57
2023/02/06 19:35:02;;;;;;;20.90;12.80;;;;;;;-1.70;70.62;102100.23;1872838;76;22802;-59
2023/02/06 19:38:21;;;;;;;16.57;10.75;;;;;;;-1.77;70.62;102096.05;1878021;76;22191;-58
2023/02/06 19:42:08;;;;;;;18.42;12.07;;;;;;;-1.88;70.65;102105.41;1749284;81;21154;-58
2023/02/06 19:45:55;;;;;;;20.90;11.80;;;;;;;-1.94;70.64;102107.86;1837304;78;21267;-59
2023/02/06 19:49:54;;;;;;;19.40;11.88;;;;;;;-1.93;70.70;102101.55;1828465;77;22826;-58
2023/02/06 19:53:35;;;;;;;21.77;12.18;;;;;;;-2.01;70.68;102115.70;1747744;78;21224;-59
2023/02/06 19:57:26;;;;;;;20.10;11.63;;;;;;;-2.07;70.60;102107.87;1737150;79;21480;-59
2023/02/06 20:00:55;;;;;;;19.77;12.43;;;;;;;-2.13;70.49;102104.53;1832722;76;22237;-58
2023/02/06 20:04:16;;;;;;;20.60;11.85;;;;;;;-2.21;70.57;102100.78;1772271;79;21229;-60
2023/02/06 20:08:41;;;;;;;17.98;10.45;;;;;;;-2.22;70.62;102107.05;1754631;80;21177;-59
2023/02/06 20:16:22;;;;;;;16.75;10.75;;;;;;;-2.24;70.65;102094.19;1772314;79;21209;-59
2023/02/06 20:20:06;;;;;;;18.73;11.60;;;;;;;-2.26;70.57;102091.13;1766161;79;21820;-59
2023/02/06 20:27:35;;;;;;;18.30;10.50;;;;;;;-2.37;70.43;102074.08;1885550;75;22183;-59
2023/02/06 20:31:01;;;;;;;17.05;10.43;;;;;;;-2.48;70.40;102080.28;1818526;76;21147;-59
2023/02/06 20:35:09;;;;;;;19.73;11.50;;;;;;;-2.50;70.53;102083.47;1808971;78;21227;-58
2023/02/06 20:38:46;;;;;;;16.37;9.80;;;;;;;-2.48;70.51;102083.41;1871789;75;22270;-58
2023/02/06 20:42:33;;;;;;;19.32;11.55;;;;;;;-2.53;70.57;102087.59;1800205;78;21163;-58
2023/02/06 20:45:53;;;;;;;19.40;11.35;;;;;;;-2.50;70.54;102084.81;1831880;76;22274;-58
2023/02/06 20:49:36;;;;;;;18.02;10.18;;;;;;;-2.55;70.53;102092.13;1765531;79;21400;-59
2023/02/06 20:53:38;;;;;;;17.17;10.95;;;;;;;-2.59;70.49;102076.20;1771107;80;21196;-58
2023/02/06 20:57:25;;;;;;;17.85;11.38;;;;;;;-2.59;70.61;102077.09;1764659;80;21200;-60
2023/02/06 21:00:54;;;;;;;18.98;11.43;;;;;;;-2.60;70.57;102081.16;1771494;79;21352;-59
2023/02/06 21:04:35;;;;;;;19.75;11.88;;;;;;;-2.57;70.62;102079.72;1771137;80;21699;-59
2023/02/06 21:08:20;;;;;;;22.25;11.95;;;;;;;-2.53;70.63;102080.89;1708495;82;21179;-58
2023/02/06 21:11:31;;;;;;;17.32;11.12;;;;;;;-2.51;70.66;102087.09;1684692;80;21894;-58
2023/02/06 21:15:20;;;;;;;17.02;10.45;;;;;;;-2.45;70.71;102092.69;1667174;85;21244;-59
2023/02/06 21:22:04;;;;;;;19.02;11.90;;;;;;;-2.37;70.67;102095.98;1878295;76;22214;-59
2023/02/06 21:25:40;;;;;;;19.73;10.75;;;;;;;-2.44;70.62;102098.00;1768914;81;21240;-59
2023/02/06 21:29:31;;;;;;;18.32;11.57;;;;;;;-2.43;70.61;102109.16;1745089;82;21879;-58
2023/02/06 21:32:59;;;;;;;20.48;12.55;;;;;;;-2.40;70.68;102105.03;1784841;79;21698;-58
2023/02/06 21:36:31;;;;;;;20.05;14.05;;;;;;;-2.30;70.71;102105.59;1828688;78;29005;-58
2023/02/06 21:40:07;;;;;;;18.98;11.83;;;;;;;-2.30;70.59;102106.93;1773902;80;21329;-57
2023/02/06 21:43:46;;;;;;;21.05;12.58;;;;;;;-2.28;70.46;102120.69;1878220;76;22222;-58
2023/02/06 21:47:21;;;;;;;17.65;11.40;;;;;;;-2.34;70.43;102120.90;1804874;79;21170;-58
2023/02/06 21:50:49;;;;;;;17.02;10.23;;;;;;;-2.34;70.41;102119.56;1853521;76;22273;-57
2023/02/06 21:58:16;;;;;;;17.10;10.82;;;;;;;-2.30;70.61;102121.68;1787170;79;21366;-59
2023/02/06 22:01:59;;;;;;;18.87;11.35;;;;;;;-2.27;70.60;102118.44;1658482;83;22131;-59
2023/02/06 22:05:44;;;;;;;17.17;11.40;;;;;;;-2.27;70.58;102129.16;1687373;83;21371;-59
2023/02/06 22:14:35;;;;;;;16.87;9.73;;;;;;;-2.20;70.68;102123.98;1845536;74;22747;-58
2023/02/06 22:18:17;;;;;;;18.32;11.38;;;;;;;-2.23;70.62;102119.19;1741580;77;21189;-58
2023/02/06 22:21:56;;;;;;;17.20;10.90;;;;;;;-2.26;70.61;102117.49;1719037;80;21204;-59
2023/02/06 22:25:24;;;;;;;16.02;10.30;;;;;;;-2.27;70.49;102118.44;1708752;79;21216;-59
2023/02/06 22:43:44;;;;;;;18.35;10.95;;;;;;;-2.34;70.60;102116.88;1789644;80;22786;-61
2023/02/06 22:47:18;;;;;;;18.67;10.78;;;;;;;-2.38;70.64;102117.05;1732085;82;21208;-59
2023/02/06 23:08:43;;;;;;;15.90;10.43;;;;;;;-2.36;70.56;102120.07;1858798;76;22243;-59
2023/02/06 23:23:27;;;;;;;16.15;9.43;;;;;;;-2.35;70.55;102113.80;1878192;76;22230;-58
2023/02/06 23:27:01;;;;;;;14.58;9.50;;;;;;;-2.44;70.51;102118.11;1760488;81;21538;-58
2023/02/06 23:30:34;;;;;;;15.78;9.80;;;;;;;-2.50;70.37;102128.16;1805006;78;21168;-58
2023/02/06 23:33:58;;;;;;;18.17;9.73;;;;;;;-2.57;70.43;102126.17;1805485;79;21334;-58
2023/02/06 23:37:16;;;;;;;14.13;9.08;;;;;;;-2.56;70.44;102123.89;1764953;79;21302;-57
2023/02/06 23:40:52;;;;;;;16.77;9.40;;;;;;;-2.55;70.53;102120.27;1805981;79;21223;-59
2023/02/06 23:44:14;;;;;;;17.27;10.18;;;;;;;-2.45;70.55;102116.37;1878352;76;22211;-57
2023/02/06 23:47:35;;;;;;;14.83;8.73;;;;;;;-2.48;70.60;102120.49;1775572;80;21271;-59
2023/02/06 23:54:57;;;;;;;14.67;10.00;;;;;;;-2.45;70.56;102125.75;1819974;79;21271;-58
2023/02/06 23:58:24;;;;;;;15.10;9.98;;;;;;;-2.46;70.54;102121.78;1878114;76;22660;-58
